Snow Hill, Texas
Current Conditions -  °F | °C
As of 6:53 PM on Friday 24 Oct 2014 (Local Time) from KLFK Reporting Station
Clear Clear  
Wind Chill: 71°   Ceiling: Unl
Heat Index: 71°   Visibility: 10mi
Dew Point: 59°   Wind: 0mph
Humidity: 66%   Direction: NA
Pressure: 30.11"   Gusts: NA
Location:  31.024°N, 94.7686°W
Report Text: KLFK 242353Z AUTO 00000KT 10SM CLR 22/15 A3011 RMK AO2 SLP192 T02170150 10278 20217 55000
Loading
Personal Weather Stations






























Interactive Weather Map
Tropical Storm Tracking
New forecast layout! Learn more

10-Day Weather Forecast

Advertisements
Track Severe Weather on mobile